createdAt,value
2023-05-04T00:01:04.142Z,8.72
2023-05-04T00:03:32.112Z,8.97
2023-05-04T00:05:59.934Z,8.04
2023-05-04T00:08:27.638Z,7.70
2023-05-04T00:10:57.453Z,8.01
2023-05-04T00:13:25.291Z,8.13
2023-05-04T00:15:53.069Z,8.05
2023-05-04T00:18:20.855Z,7.92
2023-05-04T00:20:48.562Z,8.14
2023-05-04T00:23:16.295Z,8.62
2023-05-04T00:25:44.024Z,8.18
2023-05-04T00:28:13.358Z,7.93
2023-05-04T00:30:41.456Z,7.80
2023-05-04T00:33:09.193Z,7.74
2023-05-04T00:35:37.228Z,7.92
2023-05-04T00:38:05.181Z,7.85
2023-05-04T00:40:33.280Z,8.06
2023-05-04T00:43:01.016Z,8.22
2023-05-04T00:45:30.289Z,8.49
2023-05-04T00:47:58.121Z,8.69
2023-05-04T00:50:26.249Z,8.71
2023-05-04T00:52:56.370Z,8.84
2023-05-04T00:55:24.239Z,8.34
2023-05-04T00:57:52.372Z,8.52
2023-05-04T01:00:20.195Z,8.24
2023-05-04T01:02:50.655Z,8.67
2023-05-04T01:05:18.801Z,8.64
2023-05-04T01:07:53.090Z,8.69
2023-05-04T01:10:26.332Z,8.15
2023-05-04T01:13:01.901Z,8.19
2023-05-04T01:15:30.719Z,8.46
2023-05-04T01:17:59.881Z,8.10
2023-05-04T01:20:27.795Z,8.16
2023-05-04T01:22:57.206Z,7.97
2023-05-04T01:25:28.256Z,7.70
2023-05-04T01:28:00.580Z,7.95
2023-05-04T01:30:33.340Z,8.06
2023-05-04T01:33:02.247Z,7.90
2023-05-04T01:35:30.122Z,7.55
2023-05-04T01:38:00.886Z,7.54
2023-05-04T01:40:28.594Z,7.56
2023-05-04T01:42:56.310Z,7.58
2023-05-04T01:45:24.076Z,7.65
2023-05-04T01:47:51.861Z,7.86
2023-05-04T01:50:19.586Z,8.25
2023-05-04T01:52:47.300Z,7.27
2023-05-04T01:55:16.486Z,7.14
2023-05-04T01:57:44.211Z,6.94
2023-05-04T02:00:13.047Z,6.60
2023-05-04T02:02:40.829Z,6.88
2023-05-04T02:05:09.409Z,6.77
2023-05-04T02:07:37.814Z,7.18
2023-05-04T02:10:06.360Z,7.07
2023-05-04T02:12:35.838Z,7.10
2023-05-04T02:15:03.640Z,7.02
2023-05-04T02:17:31.476Z,7.03
2023-05-04T02:19:59.235Z,7.12
2023-05-04T02:22:27.219Z,6.96
2023-05-04T02:24:54.931Z,7.37
2023-05-04T02:27:22.658Z,7.26
2023-05-04T02:29:51.705Z,7.37
2023-05-04T02:32:19.435Z,6.94
2023-05-04T02:34:47.138Z,6.64
2023-05-04T02:37:14.847Z,6.81
2023-05-04T02:39:42.554Z,6.74
2023-05-04T02:42:10.678Z,6.53
2023-05-04T02:44:38.486Z,6.58
2023-05-04T02:47:07.600Z,6.56
2023-05-04T02:49:35.738Z,6.41
2023-05-04T02:52:03.521Z,6.79
2023-05-04T02:54:31.214Z,6.97
2023-05-04T02:56:58.957Z,6.90
2023-05-04T02:59:26.705Z,7.01
2023-05-04T03:01:54.523Z,6.64
2023-05-04T03:04:23.819Z,7.17
2023-05-04T03:06:51.537Z,7.11
2023-05-04T03:09:19.480Z,7.11
2023-05-04T03:11:47.190Z,6.51
2023-05-04T03:14:14.941Z,6.31
2023-05-04T03:16:42.687Z,6.42
2023-05-04T03:19:10.403Z,6.73
2023-05-04T03:21:39.465Z,6.40
2023-05-04T03:24:07.816Z,6.31
2023-05-04T03:26:35.985Z,6.01
2023-05-04T03:29:04.441Z,5.92
2023-05-04T03:31:32.306Z,6.10
2023-05-04T03:34:00.052Z,6.07
2023-05-04T03:36:27.860Z,6.13
2023-05-04T03:38:57.362Z,6.19
2023-05-04T03:41:25.093Z,6.12
2023-05-04T03:43:52.781Z,6.37
2023-05-04T03:46:20.556Z,6.27
2023-05-04T03:48:48.312Z,6.13
2023-05-04T03:51:16.148Z,6.41
2023-05-04T03:53:44.947Z,6.26
2023-05-04T03:56:14.198Z,6.35
2023-05-04T03:58:42.011Z,6.06
2023-05-04T04:01:09.850Z,6.26
2023-05-04T04:03:39.007Z,6.35
2023-05-04T04:06:08.571Z,6.35
2023-05-04T04:08:36.395Z,6.03
2023-05-04T04:11:04.162Z,6.21
2023-05-04T04:13:33.224Z,6.26
2023-05-04T04:16:01.112Z,6.27
2023-05-04T04:18:29.350Z,6.54
2023-05-04T04:20:57.174Z,6.47
2023-05-04T04:23:25.098Z,6.38
2023-05-04T04:25:53.839Z,6.64
2023-05-04T04:28:22.205Z,6.66
2023-05-04T04:30:51.595Z,6.67
2023-05-04T04:33:19.328Z,6.69
2023-05-04T04:35:48.218Z,6.70
2023-05-04T04:38:15.968Z,7.14
2023-05-04T04:40:43.704Z,7.20
2023-05-04T04:43:11.817Z,7.00
2023-05-04T04:45:41.228Z,6.77
2023-05-04T04:48:11.457Z,7.13
2023-05-04T04:50:40.135Z,7.20
2023-05-04T04:53:08.069Z,7.15
2023-05-04T04:55:35.850Z,7.41
2023-05-04T04:58:03.577Z,7.54
2023-05-04T05:00:31.316Z,7.47
2023-05-04T05:02:59.046Z,7.48
2023-05-04T05:05:29.642Z,7.22
2023-05-04T05:07:58.809Z,8.13
2023-05-04T05:10:26.804Z,7.93
2023-05-04T05:12:54.569Z,7.83
2023-05-04T05:15:22.368Z,7.79
2023-05-04T05:17:50.085Z,8.06
2023-05-04T05:20:17.836Z,8.09
2023-05-04T05:22:46.891Z,8.26
2023-05-04T05:25:14.629Z,8.29
2023-05-04T05:27:42.402Z,8.52
2023-05-04T05:30:11.315Z,8.71
2023-05-04T05:32:39.100Z,8.76
2023-05-04T05:35:08.038Z,9.18
2023-05-04T05:37:35.872Z,8.85
2023-05-04T05:40:07.868Z,8.99
2023-05-04T05:42:35.801Z,9.09
2023-05-04T05:45:04.618Z,9.37
2023-05-04T05:47:32.448Z,9.69
2023-05-04T05:50:00.194Z,9.59
2023-05-04T05:52:27.936Z,9.56
2023-05-04T05:54:55.774Z,9.54
2023-05-04T05:57:24.913Z,9.76
2023-05-04T05:59:52.652Z,9.75
2023-05-04T06:02:20.484Z,9.91
2023-05-04T06:04:48.496Z,10.36
2023-05-04T06:07:16.580Z,10.82
2023-05-04T06:09:44.351Z,10.49
2023-05-04T06:12:13.655Z,10.49
2023-05-04T06:14:42.805Z,10.82
2023-05-04T06:17:10.821Z,10.46
2023-05-04T06:19:39.229Z,11.03
2023-05-04T06:22:07.032Z,11.61
2023-05-04T06:24:34.767Z,11.73
2023-05-04T06:27:03.400Z,11.54
2023-05-04T06:29:31.305Z,12.10
2023-05-04T06:32:00.665Z,11.68
2023-05-04T06:34:29.559Z,11.99
2023-05-04T06:36:57.701Z,11.78
2023-05-04T06:39:25.434Z,11.01
2023-05-04T06:41:54.904Z,11.52
2023-05-04T06:44:22.796Z,11.57
2023-05-04T06:46:51.282Z,11.64
2023-05-04T06:49:20.372Z,12.13
2023-05-04T06:51:48.109Z,12.08
2023-05-04T06:54:15.820Z,12.09
2023-05-04T06:56:43.554Z,12.46
2023-05-04T06:59:11.286Z,11.74
2023-05-04T07:01:39.091Z,12.16
2023-05-04T07:04:07.094Z,12.15
2023-05-04T07:06:36.702Z,12.21
2023-05-04T07:09:04.534Z,12.58
2023-05-04T07:11:32.639Z,13.24
2023-05-04T07:14:00.381Z,13.03
2023-05-04T07:16:28.158Z,13.44
2023-05-04T07:18:55.896Z,14.05
2023-05-04T07:21:28.216Z,14.35
2023-05-04T07:23:58.225Z,14.71
2023-05-04T07:26:25.965Z,13.44
2023-05-04T07:28:53.684Z,13.29
2023-05-04T07:31:22.471Z,14.02
2023-05-04T07:33:50.526Z,13.49
2023-05-04T07:36:18.232Z,13.52
2023-05-04T07:38:45.935Z,13.78
2023-05-04T07:41:15.030Z,14.09
2023-05-04T07:43:42.735Z,14.30
2023-05-04T07:46:10.581Z,14.66
2023-05-04T07:48:38.714Z,14.88
2023-05-04T07:51:06.490Z,13.73
2023-05-04T07:53:34.197Z,14.94
2023-05-04T07:56:09.393Z,15.34
2023-05-04T07:58:38.592Z,15.91
2023-05-04T08:01:06.531Z,15.65
2023-05-04T08:03:34.271Z,15.34
2023-05-04T08:06:02.077Z,15.08
2023-05-04T08:08:29.876Z,15.77
2023-05-04T08:11:07.944Z,15.16
2023-05-04T08:13:46.179Z,15.86
2023-05-04T08:16:13.907Z,16.32
2023-05-04T08:18:41.931Z,15.33
2023-05-04T08:21:09.661Z,14.63
2023-05-04T08:23:37.347Z,15.61
2023-05-04T08:26:06.072Z,16.01
2023-05-04T08:28:38.589Z,16.92
2023-05-04T08:31:08.156Z,16.75
2023-05-04T08:33:35.926Z,15.43
2023-05-04T08:36:05.313Z,15.46
2023-05-04T08:38:33.423Z,16.39
2023-05-04T08:41:03.252Z,15.77
2023-05-04T08:43:31.216Z,16.49
2023-05-04T08:45:59.064Z,16.36
2023-05-04T08:48:28.609Z,16.48
2023-05-04T08:50:58.627Z,16.43
2023-05-04T08:53:27.765Z,17.22
2023-05-04T08:55:57.062Z,16.36
2023-05-04T08:58:26.025Z,16.60
2023-05-04T09:00:54.120Z,17.06
2023-05-04T09:03:22.717Z,16.51
2023-05-04T09:05:52.890Z,17.36
2023-05-04T09:08:21.067Z,17.04
2023-05-04T09:10:48.820Z,16.69
2023-05-04T09:13:17.047Z,15.99
2023-05-04T09:15:55.035Z,16.48
2023-05-04T09:18:23.170Z,16.77
2023-05-04T09:20:52.313Z,16.82
2023-05-04T09:23:22.463Z,17.30
2023-05-04T09:25:51.236Z,18.01
2023-05-04T09:28:20.041Z,17.64
2023-05-04T09:30:49.157Z,16.70
2023-05-04T09:33:17.090Z,17.40
2023-05-04T09:35:45.489Z,18.21
2023-05-04T09:38:26.732Z,18.19
2023-05-04T09:40:54.633Z,17.70
2023-05-04T09:43:23.183Z,17.86
2023-05-04T09:45:51.595Z,17.45
2023-05-04T09:48:20.584Z,17.62
2023-05-04T09:50:53.679Z,17.53
2023-05-04T09:53:25.009Z,18.35
2023-05-04T09:56:05.729Z,18.49
2023-05-04T09:58:35.355Z,17.94
2023-05-04T10:01:03.076Z,18.42
2023-05-04T10:03:31.246Z,18.95
2023-05-04T10:05:59.827Z,19.54
2023-05-04T10:08:29.615Z,19.00
2023-05-04T10:10:58.449Z,17.34
2023-05-04T10:13:27.131Z,17.04
2023-05-04T10:16:24.338Z,16.76
2023-05-04T10:19:07.897Z,18.40
2023-05-04T10:21:47.268Z,18.58
2023-05-04T10:24:34.129Z,18.49
2023-05-04T10:27:10.306Z,19.65
2023-05-04T10:29:39.391Z,18.59
2023-05-04T10:32:17.740Z,18.02
2023-05-04T10:34:45.689Z,18.59
2023-05-04T10:37:18.468Z,18.47
2023-05-04T10:39:54.069Z,17.93
2023-05-04T10:42:22.146Z,17.96
2023-05-04T10:44:55.159Z,17.66
2023-05-04T10:47:32.400Z,17.78
2023-05-04T10:50:05.161Z,16.48
2023-05-04T10:52:33.347Z,17.93
2023-05-04T10:55:04.185Z,17.76
2023-05-04T10:57:32.066Z,17.64
2023-05-04T11:00:00.114Z,17.63
2023-05-04T11:02:30.968Z,17.41
2023-05-04T11:05:04.246Z,17.57
2023-05-04T11:07:37.624Z,17.25
2023-05-04T11:10:09.486Z,17.90
2023-05-04T11:12:38.990Z,18.97
2023-05-04T11:15:08.669Z,19.09
2023-05-04T11:17:45.571Z,17.07
2023-05-04T11:20:20.879Z,17.65
2023-05-04T11:22:49.148Z,19.08
2023-05-04T11:25:19.711Z,19.54
2023-05-04T11:27:50.428Z,19.75
2023-05-04T11:30:18.218Z,19.97
2023-05-04T11:32:47.487Z,20.92
2023-05-04T11:35:17.240Z,18.88
2023-05-04T11:37:46.311Z,20.74
2023-05-04T11:40:16.493Z,19.88
2023-05-04T11:42:46.364Z,19.54
2023-05-04T11:45:18.135Z,19.10
2023-05-04T11:47:47.067Z,19.52
2023-05-04T11:50:16.263Z,21.61
2023-05-04T11:52:44.542Z,22.19
2023-05-04T11:55:13.422Z,18.81
2023-05-04T11:57:41.605Z,19.40
2023-05-04T12:00:12.348Z,21.34
2023-05-04T12:02:40.190Z,20.27
2023-05-04T12:05:14.805Z,20.88
2023-05-04T12:07:42.621Z,19.14
2023-05-04T12:10:11.008Z,20.97
2023-05-04T12:12:38.754Z,22.08
2023-05-04T12:15:07.477Z,21.96
2023-05-04T12:17:43.094Z,21.22
2023-05-04T12:20:11.590Z,20.31
2023-05-04T12:22:39.549Z,21.30
2023-05-04T12:25:09.313Z,21.01
2023-05-04T12:27:41.678Z,21.86
2023-05-04T12:30:11.153Z,20.89
2023-05-04T12:32:39.196Z,21.32
2023-05-04T12:35:09.283Z,20.04
2023-05-04T12:37:37.961Z,20.98
2023-05-04T12:40:21.006Z,19.54
2023-05-04T12:42:55.132Z,20.02
2023-05-04T12:45:23.298Z,20.48
2023-05-04T12:47:51.050Z,19.88
2023-05-04T12:50:20.196Z,19.00
2023-05-04T12:52:47.956Z,19.89
2023-05-04T12:55:15.694Z,18.96
2023-05-04T12:57:44.924Z,19.35
2023-05-04T13:00:13.945Z,19.20
2023-05-04T13:02:41.787Z,18.93
2023-05-04T13:05:09.720Z,20.01
2023-05-04T13:07:38.828Z,19.98
2023-05-04T13:10:07.427Z,21.05
2023-05-04T13:12:35.562Z,19.48
2023-05-04T13:15:03.854Z,19.18
2023-05-04T13:17:33.804Z,19.86
2023-05-04T13:20:05.914Z,21.39
2023-05-04T13:22:34.294Z,21.88
2023-05-04T13:25:03.448Z,21.75
2023-05-04T13:27:31.209Z,21.65
2023-05-04T13:30:01.238Z,21.57
2023-05-04T13:32:29.146Z,21.97
2023-05-04T13:34:57.063Z,21.77
2023-05-04T13:37:24.800Z,22.18
2023-05-04T13:39:52.540Z,21.84
2023-05-04T13:42:21.634Z,21.88
2023-05-04T13:44:49.383Z,21.36
2023-05-04T13:47:17.671Z,21.58
2023-05-04T13:49:45.697Z,21.35
2023-05-04T13:52:13.555Z,21.26
2023-05-04T13:54:41.394Z,21.56
2023-05-04T13:57:09.236Z,21.60
2023-05-04T13:59:38.313Z,21.20
2023-05-04T14:02:06.119Z,20.17
2023-05-04T14:04:33.947Z,20.09
2023-05-04T14:07:01.700Z,19.59
2023-05-04T14:09:29.505Z,20.45
2023-05-04T14:11:57.230Z,19.90
2023-05-04T14:14:24.990Z,19.28
2023-05-04T14:16:54.122Z,20.07
2023-05-04T14:19:21.861Z,19.86
2023-05-04T14:21:49.574Z,20.34
2023-05-04T14:24:17.384Z,21.12
2023-05-04T14:26:45.142Z,19.88
2023-05-04T14:29:12.864Z,20.52
2023-05-04T14:31:40.890Z,20.99
2023-05-04T14:34:10.059Z,20.45
2023-05-04T14:36:37.794Z,19.99
2023-05-04T14:39:05.594Z,20.03
2023-05-04T14:41:35.473Z,19.66
2023-05-04T14:44:03.204Z,20.07
2023-05-04T14:46:31.471Z,19.42
2023-05-04T14:49:00.126Z,19.84
2023-05-04T14:51:29.990Z,18.94
2023-05-04T14:53:59.613Z,19.00
2023-05-04T14:56:28.620Z,19.65
2023-05-04T14:58:57.255Z,19.12
2023-05-04T15:01:25.907Z,19.35
2023-05-04T15:03:53.841Z,18.53
2023-05-04T15:06:21.759Z,17.84
2023-05-04T15:08:50.855Z,18.25
2023-05-04T15:11:19.471Z,17.69
2023-05-04T15:13:47.227Z,18.05
2023-05-04T15:16:18.578Z,17.75
2023-05-04T15:18:46.348Z,18.30
2023-05-04T15:21:14.190Z,18.05
2023-05-04T15:23:41.925Z,18.10
2023-05-04T15:26:10.989Z,18.02
2023-05-04T15:28:38.754Z,17.16
2023-05-04T15:31:07.366Z,17.82
2023-05-04T15:33:35.083Z,17.17
2023-05-04T15:36:07.347Z,17.17
2023-05-04T15:38:35.194Z,17.54
2023-05-04T15:41:03.412Z,17.37
2023-05-04T15:43:32.589Z,17.16
2023-05-04T15:46:00.332Z,16.75
2023-05-04T15:48:28.470Z,16.65
2023-05-04T15:50:56.656Z,17.29
2023-05-04T15:53:24.396Z,17.06
2023-05-04T15:55:52.501Z,16.15
2023-05-04T15:58:20.279Z,16.56
2023-05-04T16:00:49.755Z,16.36
2023-05-04T16:03:17.674Z,16.66
2023-05-04T16:05:45.492Z,16.48
2023-05-04T16:08:13.237Z,16.80
2023-05-04T16:10:41.005Z,16.44
2023-05-04T16:13:10.627Z,16.49
2023-05-04T16:15:39.838Z,15.95
2023-05-04T16:18:08.943Z,16.34
2023-05-04T16:20:36.775Z,16.87
2023-05-04T16:23:04.478Z,16.55
2023-05-04T16:25:32.251Z,16.25
2023-05-04T16:27:59.998Z,16.45
2023-05-04T16:30:32.254Z,16.04
2023-05-04T16:33:00.167Z,16.23
2023-05-04T16:35:32.298Z,15.69
2023-05-04T16:38:00.337Z,16.03
2023-05-04T16:40:28.554Z,15.90
2023-05-04T16:42:56.265Z,15.89
2023-05-04T16:45:25.585Z,15.98
2023-05-04T16:47:53.383Z,15.91
2023-05-04T16:50:21.132Z,15.90
2023-05-04T16:52:50.245Z,16.65
2023-05-04T16:55:17.959Z,15.84
2023-05-04T16:57:45.894Z,15.73
2023-05-04T17:00:14.954Z,15.23
2023-05-04T17:02:42.824Z,15.27
2023-05-04T17:05:11.372Z,15.33
2023-05-04T17:07:40.107Z,15.38
2023-05-04T17:10:10.906Z,15.24
2023-05-04T17:12:38.942Z,15.69
2023-05-04T17:15:07.851Z,14.60
2023-05-04T17:17:35.606Z,15.26
2023-05-04T17:20:03.800Z,15.44
2023-05-04T17:22:31.707Z,15.25
2023-05-04T17:24:59.484Z,15.29
2023-05-04T17:27:28.597Z,15.15
2023-05-04T17:29:56.358Z,15.54
2023-05-04T17:32:24.129Z,15.17
2023-05-04T17:34:51.904Z,15.45
2023-05-04T17:37:19.758Z,16.14
2023-05-04T17:39:48.110Z,15.77
2023-05-04T17:42:17.131Z,15.38
2023-05-04T17:44:46.852Z,15.62
2023-05-04T17:47:14.621Z,15.50
2023-05-04T17:49:42.346Z,14.95
2023-05-04T17:52:11.925Z,15.09
2023-05-04T17:54:40.328Z,14.85
2023-05-04T17:57:08.046Z,14.92
2023-05-04T17:59:35.844Z,14.91
2023-05-04T18:02:05.006Z,14.86
2023-05-04T18:04:32.724Z,14.45
2023-05-04T18:07:00.504Z,14.18
2023-05-04T18:09:28.281Z,14.23
2023-05-04T18:11:56.982Z,14.42
2023-05-04T18:14:24.856Z,14.59
2023-05-04T18:16:52.607Z,14.12
2023-05-04T18:19:24.654Z,14.24
2023-05-04T18:21:52.613Z,14.16
2023-05-04T18:24:20.377Z,14.54
2023-05-04T18:26:48.301Z,14.80
2023-05-04T18:29:19.442Z,14.41
2023-05-04T18:31:47.726Z,14.30
2023-05-04T18:34:15.636Z,14.14
2023-05-04T18:36:45.603Z,13.95
2023-05-04T18:39:14.560Z,13.70
2023-05-04T18:41:42.309Z,13.88
2023-05-04T18:44:10.081Z,13.59
2023-05-04T18:46:37.827Z,13.54
2023-05-04T18:49:05.677Z,13.50
2023-05-04T18:51:33.733Z,13.93
2023-05-04T18:54:03.440Z,13.77
2023-05-04T18:56:31.451Z,13.83
2023-05-04T18:58:59.177Z,13.62
2023-05-04T19:01:27.838Z,13.75
2023-05-04T19:03:55.692Z,13.44
2023-05-04T19:06:23.522Z,13.78
2023-05-04T19:08:51.824Z,13.70
2023-05-04T19:11:21.570Z,13.66
2023-05-04T19:13:49.951Z,13.37
2023-05-04T19:16:17.821Z,13.44
2023-05-04T19:18:45.680Z,13.28
2023-05-04T19:21:13.564Z,13.11
2023-05-04T19:23:41.314Z,13.49
2023-05-04T19:26:09.277Z,13.54
2023-05-04T19:28:39.948Z,12.68
2023-05-04T19:31:07.860Z,13.52
2023-05-04T19:33:47.189Z,13.02
2023-05-04T19:36:16.065Z,13.31
2023-05-04T19:38:43.901Z,13.56
2023-05-04T19:41:11.682Z,13.50
2023-05-04T19:43:40.805Z,13.23
2023-05-04T19:46:08.655Z,13.15
2023-05-04T19:48:36.422Z,13.45
2023-05-04T19:51:04.887Z,13.28
2023-05-04T19:53:32.653Z,13.24
2023-05-04T19:56:00.373Z,13.14
2023-05-04T19:58:30.067Z,12.93
2023-05-04T20:00:59.233Z,12.99
2023-05-04T20:03:27.160Z,12.87
2023-05-04T20:05:55.574Z,12.76
2023-05-04T20:08:23.299Z,12.81
2023-05-04T20:10:51.051Z,12.57
2023-05-04T20:13:18.902Z,12.95
2023-05-04T20:15:46.815Z,12.51
2023-05-04T20:18:16.852Z,12.66
2023-05-04T20:20:44.961Z,12.50
2023-05-04T20:23:13.124Z,12.75
2023-05-04T20:25:41.228Z,12.57
2023-05-04T20:28:08.921Z,12.59
2023-05-04T20:30:36.834Z,12.91
2023-05-04T20:33:04.792Z,12.49
2023-05-04T20:35:34.000Z,12.81
2023-05-04T20:38:02.496Z,12.51
2023-05-04T20:40:30.310Z,12.53
2023-05-04T20:42:58.083Z,12.66
2023-05-04T20:45:25.877Z,12.80
2023-05-04T20:47:53.656Z,12.14
2023-05-04T20:50:21.612Z,12.63
2023-05-04T20:52:50.808Z,12.72
2023-05-04T20:55:18.864Z,12.66
2023-05-04T20:57:46.613Z,12.38
2023-05-04T21:00:15.479Z,12.57
2023-05-04T21:02:43.321Z,12.38
2023-05-04T21:05:11.407Z,12.14
2023-05-04T21:07:39.144Z,12.29
2023-05-04T21:10:09.980Z,12.41
2023-05-04T21:12:37.855Z,12.30
2023-05-04T21:15:06.353Z,12.18
2023-05-04T21:17:34.123Z,12.70
2023-05-04T21:20:01.931Z,12.29
2023-05-04T21:22:29.667Z,12.09
2023-05-04T21:24:57.420Z,12.28
2023-05-04T21:27:26.599Z,12.17
2023-05-04T21:29:54.382Z,12.44
2023-05-04T21:32:22.086Z,11.98
2023-05-04T21:34:53.042Z,12.31
2023-05-04T21:37:21.063Z,11.98
2023-05-04T21:39:48.916Z,11.91
2023-05-04T21:42:16.683Z,12.22
2023-05-04T21:44:45.792Z,12.43
2023-05-04T21:47:13.544Z,12.35
2023-05-04T21:49:41.322Z,12.51
2023-05-04T21:52:09.057Z,12.17
2023-05-04T21:54:37.307Z,12.63
2023-05-04T21:57:06.376Z,12.32
2023-05-04T21:59:34.070Z,12.11
2023-05-04T22:02:03.506Z,12.35
2023-05-04T22:04:31.618Z,12.22
2023-05-04T22:06:59.676Z,12.14
2023-05-04T22:09:29.162Z,12.13
2023-05-04T22:11:56.873Z,12.08
2023-05-04T22:14:24.585Z,12.18
2023-05-04T22:16:52.962Z,11.97
2023-05-04T22:19:22.096Z,12.27
2023-05-04T22:21:49.851Z,12.43
2023-05-04T22:24:17.613Z,12.10
2023-05-04T22:26:45.413Z,12.34
2023-05-04T22:29:13.169Z,11.75
2023-05-04T22:31:40.905Z,11.97
2023-05-04T22:34:09.060Z,11.68
2023-05-04T22:36:38.175Z,11.81
2023-05-04T22:39:05.954Z,11.51
2023-05-04T22:41:33.755Z,11.99
2023-05-04T22:44:01.474Z,11.58
2023-05-04T22:46:29.233Z,11.87
2023-05-04T22:48:56.971Z,12.21
2023-05-04T22:51:24.697Z,11.99
2023-05-04T22:53:53.776Z,11.79
2023-05-04T22:56:21.616Z,11.99
2023-05-04T22:58:49.312Z,11.48
2023-05-04T23:01:18.098Z,11.81
2023-05-04T23:03:46.377Z,11.11
2023-05-04T23:06:15.195Z,10.81
2023-05-04T23:08:43.154Z,11.21
2023-05-04T23:11:12.309Z,11.28
2023-05-04T23:13:40.087Z,11.18
2023-05-04T23:16:08.758Z,11.49
2023-05-04T23:18:36.614Z,11.65
2023-05-04T23:21:04.436Z,11.24
2023-05-04T23:23:32.191Z,11.23
2023-05-04T23:25:59.951Z,11.05
2023-05-04T23:28:29.033Z,11.40
2023-05-04T23:30:56.796Z,11.41
2023-05-04T23:33:24.625Z,11.03
2023-05-04T23:35:55.677Z,11.10
2023-05-04T23:38:23.861Z,11.03
2023-05-04T23:40:52.058Z,11.36
2023-05-04T23:43:19.758Z,11.15
2023-05-04T23:45:49.244Z,11.49
2023-05-04T23:48:16.987Z,11.24
2023-05-04T23:50:53.292Z,11.45
2023-05-04T23:53:21.366Z,10.87
2023-05-04T23:55:57.768Z,11.23
2023-05-04T23:58:25.802Z,11.27
